INDIA METEOROLOGICAL DEPARTMENT, R.M.C. NEW DELHI
Dated:25 - 3 - 2017
METARS OF ALTERNATE AIRPORTS
Delhi      
VIDP 250130Z 23002KT 2200 BR NSC 17/14 Q1011 NOSIG=
Amritsar   
VIAR 250130Z 00000KT 3000 BR SCT100 14/14 Q1011 NOSIG=
Lucknow    
VILK 250130Z VRB02KT 2000 HZ NSC 20/16 Q1009 NOSIG=
Jaipur     
VIJP 250130Z 00000KT 3000 HZ NSC 24/06 Q1013 NOSIG=
Ahmedabad  
VAAH 250130Z 35002KT 3500 FU NSC 24/13 Q1012 NOSIG=
Udaipur    
VAUD 250130Z 00000KT 5000 HZ NSC 19/12 Q1013 NOSIG=
Mumbai     
VABB 250200Z 10003KT 3500 HZ NSC 28/19 Q1011 NOSIG=